Terminal Aerodrome Forecast
Issued by NWS

Current Version | Previous Version | Text Only | Print | Product List | Glossary On
Versions: 1 2 3 4 5 6 7 8 9 10 11 12 13 14 15 16 17 18 19 20 21 22 23
940
FTUS41 KPHI 132341
TAFPNE
TAF
KPNE 132341Z 1400/1424 30016G27KT P6SM SCT060
     FM140200 31014G24KT P6SM FEW060
     FM140900 31012KT P6SM SKC
     FM142100 30007KT P6SM SCT200=

USA.gov is the U.S. government's official web portal to all federal, state and local government web resources and services.